• Join FlightAware (Why Join?)
  • Login
  • US Flag 
10:49AM EDT


 

Airport Tracker/Info


-or-


 

Live Flight TrackerFlight Track Log ✈ SWA2975 ✈ 01-Jul-2013 ✈ KMDW - KALB

Flight Track Log - Related Links

Times and Time Zones

All times are in EDT time to prevent confusion due to time zone crossing. See the SWA2975 flight status page for this flight to view local times or setup timezone preferences in your user account.

Time Position Orientation Groundspeed Altitude Reporting Facility
EDT Latitude Longitude Course Direction KTS MPH feet Rate Location/Type
11:26PM 41.7980 -87.7320 74° East 136 157 2,000  Level FlightAware
11:26PM 41.7980 -87.7270 90° East 144 166 2,200 1,200 Climbing FlightAware
11:27PM 41.7980 -87.6890 90° East 197 227 2,900 1,500 Climbing FlightAware
11:27PM 41.7990 -87.6500 88° East 235 270 3,800 2,760 Climbing FlightAware
11:27PM 41.7990 -87.6160 90° East 240 276 5,200 3,420 Climbing FlightAware
11:28PM 41.7980 -87.5690 92° East 251 289 6,900 3,060 Climbing FlightAware
11:28PM 41.7980 -87.5360 90° East 256 295 8,000 2,880 Climbing FlightAware
11:29PM 41.7970 -87.5170 94° East 259 298 8,600 3,180 Climbing FlightAware
11:29PM 41.7950 -87.4470 92° East 271 312 10,900 2,700 Climbing FlightAware
11:30PM 41.7880 -87.3740 97° East 304 350 12,400 1,920 Climbing FlightAware
11:31PM 41.7820 -87.3030 96° East 338 389 13,400 2,040 Climbing FlightAware
11:31PM 41.7740 -87.2060 96° East 361 415 15,200 2,400 Climbing FlightAware
11:32PM 41.7670 -87.1210 96° East 374 430 16,700 2,460 Climbing FlightAware
11:33PM 41.7620 -87.0210 94° East 383 441 18,500 2,400 Climbing FlightAware
11:33PM 41.7640 -86.9100 89° East 394 453 20,300 2,220 Climbing FlightAware
11:34PM 41.7650 -86.8250 89° East 403 464 21,500 2,040 Climbing FlightAware
11:35PM 41.7660 -86.7050 89° East 414 476 23,100 1,980 Climbing FlightAware
11:35PM 41.7660 -86.6130 90° East 418 481 24,300 1,800 Climbing FlightAware
11:36PM 41.7670 -86.5090 89° East 427 491 25,400 1,860 Climbing FlightAware
11:37PM 41.7680 -86.3950 89° East 425 489 26,900 1,920 Climbing FlightAware
11:37PM 41.7730 -86.2920 86° East 426 490 28,100 1,500 Climbing FlightAware
11:38PM 41.7820 -86.1810 84° East 431 496 29,000 600 Climbing FlightAware
11:39PM 41.7850 -86.0600 88° East 451 519 29,000  Level FlightAware
11:40PM 41.7950 -85.9460 83° East 455 524 29,000  Level FlightAware
11:40PM 41.8040 -85.8450 83° East 456 525 29,000  Level FlightAware
11:41PM 41.8150 -85.7260 83° East 456 525 29,000  Level FlightAware
11:42PM 41.8250 -85.6090 83° East 454 522 29,000  Level FlightAware
11:42PM 41.8340 -85.4990 84° East 453 521 29,000  Level FlightAware
11:43PM 41.8440 -85.3920 83° East 453 521 29,000  Level FlightAware
11:44PM 41.8530 -85.2820 84° East 453 521 29,000  Level FlightAware
11:44PM 41.8610 -85.1750 84° East 453 521 29,000  Level FlightAware
11:45PM 41.8710 -85.0500 84° East 452 520 29,000 -600 Level FlightAware
11:46PM 41.8800 -84.9420 84° East 442 509 28,200 -1,140 Descending FlightAware
11:46PM 41.8890 -84.8270 84° East 431 496 27,500 -1,500 Descending FlightAware
11:47PM 41.8980 -84.7090 84° East 427 491 26,100 -1,740 Descending FlightAware
11:48PM 41.9060 -84.5970 84° East 419 482 25,000 -840 Descending FlightAware
11:48PM 41.9170 -84.5030 81° East 419 482 25,000  Level FlightAware
11:49PM 41.9350 -84.3450 81° East 419 482 25,000  Level FlightAware
11:50PM 41.9470 -84.2440 81° East 418 481 25,000  Level FlightAware
11:51PM 41.9600 -84.1260 82° East 427 491 25,000  Level FlightAware
11:51PM 41.9700 -84.0360 81° East 437 503 25,000  Level FlightAware
11:52PM 41.9820 -83.9280 81° East 436 502 25,000  Level FlightAware
11:53PM 41.9950 -83.8110 81° East 437 503 25,000  Level FlightAware
11:53PM 42.0080 -83.7010 81° East 437 503 25,000  Level FlightAware
11:54PM 42.0200 -83.5830 82° East 438 504 25,000  Level FlightAware
11:55PM 42.0320 -83.4750 81° East 441 507 25,000  Level FlightAware
11:56PM 42.0440 -83.3620 82° East 443 510 25,000  Level FlightAware
11:56PM 42.0560 -83.2540 81° East 431 496 25,000  Level FlightAware
11:57PM 42.0660 -83.1570 82° East 429 494 25,000  Level FlightAware
11:58PM 42.0780 -83.0420 82° East 427 491 25,000  Level FlightAware
11:58PM 42.0890 -82.9380 82° East 426 490 25,000  Level FlightAware
11:59PM 42.0990 -82.8380 82° East 426 490 25,000  Level FlightAware
12:00AM 42.1100 -82.7320 82° East 425 489 25,000  Level FlightAware
12:00AM 42.1190 -82.6340 83° East 424 488 25,000  Level FlightAware
12:01AM 42.1320 -82.5030 82° East 419 482 25,000  Level FlightAware
12:02AM 42.1420 -82.4040 82° East 418 481 25,000  Level FlightAware
12:02AM 42.1520 -82.2970 83° East 420 483 25,000  Level FlightAware
12:03AM 42.1640 -82.1810 82° East 421 484 25,000  Level FlightAware
12:04AM 42.1740 -82.0740 83° East 420 483 25,000  Level FlightAware
12:04AM 42.1840 -81.9610 83° East 420 483 25,000  Level FlightAware
12:05AM 42.1940 -81.8610 82° East 419 482 25,000  Level FlightAware
12:06AM 42.2050 -81.7460 83° East 419 482 25,000  Level FlightAware
12:07AM 42.2150 -81.6300 83° East 425 489 25,000  Level FlightAware
12:07AM 42.2240 -81.5310 83° East 425 489 25,000  Level FlightAware
12:08AM 42.2340 -81.4220 83° East 426 490 25,000  Level FlightAware
12:09AM 42.2440 -81.3130 83° East 426 490 25,000  Level FlightAware
12:09AM 42.2530 -81.2020 84° East 427 491 25,000  Level FlightAware
12:10AM 42.2620 -81.0930 84° East 428 493 25,000  Level FlightAware
12:11AM 42.2720 -80.9820 83° East 429 494 25,000  Level FlightAware
12:12AM 42.2810 -80.8730 84° East 430 495 25,000  Level FlightAware
12:12AM 42.2900 -80.7680 83° East 427 491 25,000  Level FlightAware
12:13AM 42.2980 -80.6680 84° East 427 491 25,000  Level FlightAware
12:13AM 42.3070 -80.5670 83° East 426 490 25,000  Level FlightAware
12:14AM 42.3160 -80.4560 84° East 428 493 25,000  Level FlightAware
12:15AM 42.3250 -80.3330 84° East 433 498 25,000  Level FlightAware
12:16AM 42.3340 -80.2240 84° East 434 499 25,000  Level FlightAware
12:16AM 42.3440 -80.1000 84° East 436 502 25,000  Level FlightAware
12:17AM 42.3520 -79.9880 84° East 437 503 25,000  Level FlightAware
12:18AM 42.3590 -79.8980 84° East 438 504 25,000  Level FlightAware
12:18AM 42.3670 -79.7870 84° East 439 505 25,000  Level FlightAware
12:19AM 42.3770 -79.6610 84° East 440 506 25,000  Level FlightAware
12:20AM 42.3830 -79.5730 85° East 440 506 25,000  Level FlightAware
12:20AM 42.3940 -79.4280 84° East 441 507 25,000  Level FlightAware
12:21AM 42.4010 -79.3150 85° East 443 510 25,000  Level FlightAware
12:22AM 42.4100 -79.1940 84° East 445 512 25,000  Level FlightAware
12:22AM 42.4180 -79.0750 85° East 447 514 25,000  Level FlightAware
12:23AM 42.4260 -78.9630 84° East 448 516 25,000  Level FlightAware
12:24AM 42.4340 -78.8410 85° East 448 516 25,000  Level FlightAware
12:24AM 42.4390 -78.7570 85° East 445 512 25,000  Level FlightAware
12:25AM 42.4480 -78.6280 85° East 444 511 25,000  Level FlightAware
12:26AM 42.4550 -78.5170 85° East 444 511 25,000  Level FlightAware
12:26AM 42.4610 -78.4230 85° East 445 512 25,000  Level FlightAware
12:27AM 42.4690 -78.2980 85° East 444 511 25,000  Level FlightAware
12:28AM 42.4750 -78.1880 86° East 444 511 25,000  Level FlightAware
12:28AM 42.4810 -78.0880 85° East 443 510 25,000  Level FlightAware
12:29AM 42.4890 -77.9560 85° East 443 510 25,000  Level FlightAware
12:30AM 42.4960 -77.8400 85° East 441 507 25,000  Level FlightAware
12:31AM 42.5020 -77.7240 86° East 437 503 25,000  Level FlightAware
12:31AM 42.5080 -77.6200 85° East 432 497 25,000  Level FlightAware
12:32AM 42.5140 -77.5230 85° East 431 496 25,000  Level FlightAware
12:33AM 42.5200 -77.3990 86° East 429 494 25,000  Level FlightAware
12:33AM 42.5250 -77.2970 86° East 433 498 25,000  Level FlightAware
12:34AM 42.5310 -77.1940 85° East 435 501 25,000  Level FlightAware
12:35AM 42.5370 -77.0740 86° East 436 502 25,000  Level FlightAware
12:35AM 42.5420 -76.9760 86° East 436 502 25,000  Level FlightAware
12:36AM 42.5470 -76.8620 87° East 435 501 25,000  Level FlightAware
12:37AM 42.5530 -76.7410 86° East 435 501 25,000  Level FlightAware
12:37AM 42.5590 -76.6170 86° East 438 504 25,000  Level FlightAware
12:38AM 42.5640 -76.5070 86° East 439 505 25,000  Level FlightAware
12:39AM 42.5690 -76.3920 87° East 439 505 25,000  Level FlightAware
12:39AM 42.5740 -76.2820 86° East 440 506 25,000  Level FlightAware
12:40AM 42.5790 -76.1590 87° East 441 507 25,000  Level FlightAware
12:41AM 42.5840 -76.0500 86° East 442 509 25,000  Level FlightAware
12:42AM 42.5890 -75.9280 87° East 443 510 25,000  Level FlightAware
12:42AM 42.5940 -75.8170 86° East 444 511 25,000 -180 Level FlightAware
12:43AM 42.5970 -75.7170 88° East 440 506 24,800 -1,320 Descending FlightAware
12:44AM 42.6020 -75.5960 87° East 430 495 23,300 -2,040 Descending FlightAware
12:44AM 42.6060 -75.5010 87° East 423 487 22,100 -2,040 Descending FlightAware
12:45AM 42.6060 -75.3460 90° East 404 465 20,100 -1,920 Descending FlightAware
12:46AM 42.5990 -75.2350 95° East 393 452 18,800 -1,800 Descending FlightAware
12:46AM 42.5900 -75.1520 98° East 388 447 17,700 -2,040 Descending FlightAware
12:47AM 42.5890 -75.0480 91° East 394 453 16,200 -2,040 Descending FlightAware
12:48AM 42.5930 -74.9700 86° East 391 450 15,200 -1,920 Descending FlightAware
12:49AM 42.6000 -74.8490 85° East 385 443 13,600 -1,140 Descending FlightAware
12:49AM 42.6050 -74.7730 85° East 385 443 13,600  Level FlightAware
12:50AM 42.6100 -74.6990 85° East 385 443 13,600  Level FlightAware
12:51AM 42.6160 -74.6050 85° East 385 443 13,600 -1,980 Level FlightAware
12:52AM 42.6200 -74.4575 85° East 312 359 10,200 -2,340 Descending Boston Center
12:53AM 42.6097 -74.3303 96° East 304 350 8,700 -1,380 Descending Boston Center
12:54AM 42.6008 -74.2369 97° East 296 341 7,500 -1,440 Descending Boston Center
12:55AM 42.5881 -74.1292 99° East 288 331 6,000 -1,320 Descending Boston Center
12:56AM 42.5769 -74.0161 98° East 279 321 4,900 -1,020 Descending Boston Center
12:57AM 42.5678 -73.9258 98° East 235 270 4,000 -960 Descending Boston Center
12:58AM 42.5708 -73.8442 87° East 217 250 3,000 -1,020 Descending Boston Center
12:59AM 42.6256 -73.8142 22° Northeast 222 255 2,000 -840 Descending Boston Center
01:00AM 42.6778 -73.8042 North 190 219 1,400 -780 Descending Boston Center
01:01AM 42.7278 -73.8081 357° North 162 186 500 -900 Descending Boston Center